Time;durP1;ratioP1;P1;durP2;ratioP2;P2;SDS_P1;SDS_P2;PMS_P1;PMS_P2;Temp;Humidity;BMP_temperature;BMP_pressure;BME280_temperature;BME280_humidity;BME280_pressure;Samples;Min_cycle;Max_cycle;Signal;HPM_P1;HPM_P2
2023/02/24 00:01:12;;;;;;;9.13;2.47;;;2.70;99.90;;;;;;4986016;28;20338;-85
2023/02/24 00:03:43;;;;;;;8.48;2.30;;;2.70;99.90;;;;;;4998913;28;20030;-84
2023/02/24 00:06:10;;;;;;;9.60;2.38;;;2.70;99.90;;;;;;4986899;28;20053;-85
2023/02/24 00:08:38;;;;;;;8.27;2.45;;;2.70;99.90;;;;;;4998394;28;20073;-82
2023/02/24 00:11:15;;;;;;;7.03;2.05;;;2.70;99.90;;;;;;4997481;28;20403;-84
2023/02/24 00:13:45;;;;;;;7.03;1.98;;;2.70;99.90;;;;;;4998047;28;20049;-84
2023/02/24 00:16:13;;;;;;;8.45;2.22;;;2.70;99.90;;;;;;4999798;28;20026;-82
2023/02/24 00:18:39;;;;;;;9.63;2.50;;;2.60;99.90;;;;;;4987928;28;20053;-86
2023/02/24 00:21:12;;;;;;;5.32;2.13;;;2.60;99.90;;;;;;4987764;28;20261;-86
2023/02/24 00:23:39;;;;;;;8.05;2.15;;;2.60;99.90;;;;;;5006751;28;20038;-85
2023/02/24 00:26:06;;;;;;;8.85;2.72;;;2.60;99.90;;;;;;4984583;28;20034;-87
2023/02/24 00:28:35;;;;;;;10.93;2.95;;;2.50;99.90;;;;;;4986848;28;20041;-85
2023/02/24 00:31:05;;;;;;;11.23;2.40;;;2.50;99.90;;;;;;4987271;28;20046;-84
2023/02/24 00:33:32;;;;;;;8.40;2.40;;;2.50;99.90;;;;;;4987891;28;20030;-82
2023/02/24 00:36:09;;;;;;;10.75;4.05;;;2.50;99.90;;;;;;4999198;28;20034;-83
2023/02/24 00:38:36;;;;;;;6.53;1.77;;;2.50;99.90;;;;;;5004253;28;20056;-83
2023/02/24 00:41:15;;;;;;;9.02;2.40;;;2.40;99.90;;;;;;4999987;28;20185;-82
2023/02/24 00:43:45;;;;;;;6.95;2.30;;;2.40;99.90;;;;;;4982328;28;20050;-86
2023/02/24 00:46:13;;;;;;;6.43;2.15;;;2.40;99.90;;;;;;4999998;28;20030;-81
2023/02/24 00:48:39;;;;;;;11.07;3.58;;;2.40;99.90;;;;;;4998208;28;20049;-81
2023/02/24 00:51:13;;;;;;;7.40;2.65;;;2.40;99.90;;;;;;4996640;28;20042;-81
2023/02/24 00:53:39;;;;;;;9.52;2.70;;;2.30;99.90;;;;;;4998970;28;20105;-85
2023/02/24 00:56:10;;;;;;;9.32;2.55;;;2.30;99.90;;;;;;4997465;28;20128;-82
2023/02/24 00:58:38;;;;;;;8.50;2.83;;;2.30;99.90;;;;;;4986039;28;20505;-81
2023/02/24 01:01:04;;;;;;;10.52;3.15;;;2.20;99.90;;;;;;4985598;28;20496;-80
2023/02/24 01:03:32;;;;;;;8.32;2.70;;;2.20;99.90;;;;;;4986908;28;20030;-82
2023/02/24 01:06:02;;;;;;;7.70;2.88;;;2.20;99.90;;;;;;4997462;28;20049;-82
2023/02/24 01:08:28;;;;;;;7.60;2.67;;;2.20;99.90;;;;;;4999226;28;20072;-82
2023/02/24 01:13:44;;;;;;;8.02;3.45;;;2.20;99.90;;;;;;4998920;28;20187;-85
2023/02/24 01:16:12;;;;;;;12.80;3.90;;;2.20;99.90;;;;;;4985989;28;20326;-86
2023/02/24 01:18:38;;;;;;;8.15;3.17;;;2.10;99.90;;;;;;4996515;28;20062;-84
2023/02/24 01:21:03;;;;;;;7.47;3.20;;;2.10;99.90;;;;;;4995839;28;20080;-85
2023/02/24 01:23:29;;;;;;;7.85;3.80;;;2.10;99.90;;;;;;4986254;28;20045;-87
2023/02/24 01:25:58;;;;;;;10.00;3.15;;;2.10;99.90;;;;;;5002835;28;20057;-83
2023/02/24 01:28:25;;;;;;;9.57;3.15;;;2.10;99.90;;;;;;4998372;28;20554;-84
2023/02/24 01:30:53;;;;;;;7.65;3.30;;;2.10;99.90;;;;;;4985895;28;20550;-86
2023/02/24 01:33:20;;;;;;;7.15;2.72;;;2.00;99.90;;;;;;4997465;28;20039;-85
2023/02/24 01:35:47;;;;;;;5.20;2.28;;;2.00;99.90;;;;;;4998494;28;20096;-81
2023/02/24 01:38:12;;;;;;;10.35;2.97;;;2.00;99.90;;;;;;4998905;28;20083;-85
2023/02/24 01:40:38;;;;;;;6.53;2.60;;;2.00;99.90;;;;;;5012912;28;20771;-84
2023/02/24 01:43:07;;;;;;;7.68;2.30;;;2.00;99.90;;;;;;4996813;28;20099;-82
2023/02/24 01:45:35;;;;;;;7.03;2.30;;;1.90;99.90;;;;;;4985403;28;20061;-83
2023/02/24 01:48:04;;;;;;;7.70;2.58;;;1.90;99.90;;;;;;4987175;28;20069;-85
2023/02/24 01:50:33;;;;;;;8.07;2.30;;;1.90;99.90;;;;;;4984115;28;20058;-83
2023/02/24 01:53:03;;;;;;;7.90;2.47;;;1.90;99.90;;;;;;4986026;28;20110;-83
2023/02/24 01:55:56;;;;;;;7.80;2.70;;;1.90;99.90;;;;;;4984214;28;20038;-87
2023/02/24 01:58:25;;;;;;;7.37;2.47;;;1.90;99.90;;;;;;4976091;28;20062;-82
2023/02/24 02:00:51;;;;;;;9.07;2.25;;;1.90;99.90;;;;;;4979308;28;20289;-84
2023/02/24 02:03:19;;;;;;;5.63;2.17;;;1.80;99.90;;;;;;4976854;28;20031;-85
2023/02/24 02:05:47;;;;;;;8.98;2.80;;;1.80;99.90;;;;;;4980517;28;20042;-85
2023/02/24 02:08:14;;;;;;;5.68;2.28;;;1.80;99.90;;;;;;4976381;28;20030;-86
2023/02/24 02:10:43;;;;;;;5.47;2.40;;;1.80;99.90;;;;;;4978469;28;20859;-83
2023/02/24 02:13:19;;;;;;;5.95;2.42;;;1.80;99.90;;;;;;4978487;28;20508;-86
2023/02/24 02:16:04;;;;;;;8.30;2.40;;;1.70;99.90;;;;;;4978408;28;20042;-83
2023/02/24 02:18:49;;;;;;;6.57;2.70;;;1.70;99.90;;;;;;4978348;28;20034;-85
2023/02/24 02:21:18;;;;;;;7.90;2.03;;;1.60;99.90;;;;;;4977947;28;20055;-83
2023/02/24 02:23:59;;;;;;;10.10;3.85;;;1.60;99.90;;;;;;4977397;28;20030;-86
2023/02/24 02:26:39;;;;;;;5.50;2.00;;;1.60;99.90;;;;;;4983863;28;20137;-81
2023/02/24 02:29:24;;;;;;;8.05;2.65;;;1.50;99.90;;;;;;4976229;28;20121;-84
2023/02/24 02:32:09;;;;;;;8.35;2.00;;;1.50;99.90;;;;;;4978348;28;20049;-79
2023/02/24 02:34:50;;;;;;;5.95;2.25;;;1.50;99.90;;;;;;4984107;28;20097;-79
2023/02/24 02:37:38;;;;;;;3.60;1.65;;;1.50;99.90;;;;;;4983789;28;20042;-80
2023/02/24 02:40:19;;;;;;;7.88;2.40;;;1.50;99.90;;;;;;4978560;28;20038;-80
2023/02/24 02:43:10;;;;;;;6.68;2.45;;;1.40;99.90;;;;;;4977826;28;20027;-84
2023/02/24 02:45:46;;;;;;;7.05;2.47;;;1.40;99.90;;;;;;4982696;28;20531;-83
2023/02/24 02:48:32;;;;;;;6.35;1.75;;;1.30;99.90;;;;;;4977496;28;20038;-81
2023/02/24 02:51:05;;;;;;;5.60;2.00;;;1.30;99.90;;;;;;4980992;28;20358;-83
2023/02/24 02:53:46;;;;;;;5.15;2.15;;;1.30;99.90;;;;;;4986358;28;20105;-83
2023/02/24 02:56:32;;;;;;;7.85;2.20;;;1.30;99.90;;;;;;4985350;28;20094;-84
2023/02/24 02:58:59;;;;;;;4.93;2.00;;;1.30;99.90;;;;;;4985663;28;20477;-84
2023/02/24 03:01:32;;;;;;;5.88;2.20;;;1.30;99.90;;;;;;4982200;28;20047;-84
2023/02/24 03:04:06;;;;;;;5.70;1.85;;;1.30;99.90;;;;;;4986689;28;20053;-86
2023/02/24 03:06:34;;;;;;;7.40;1.90;;;1.20;99.90;;;;;;4985421;28;20155;-84
2023/02/24 03:09:29;;;;;;;7.55;2.20;;;1.20;99.90;;;;;;4980378;28;20062;-84
2023/02/24 03:12:03;;;;;;;5.43;1.67;;;1.20;99.90;;;;;;4984020;28;20046;-86
2023/02/24 03:14:33;;;;;;;4.40;1.58;;;1.30;99.90;;;;;;4980344;28;20366;-85
2023/02/24 03:17:03;;;;;;;3.97;1.20;;;1.20;99.90;;;;;;4993665;28;20046;-86
2023/02/24 03:19:39;;;;;;;4.50;1.65;;;1.20;99.90;;;;;;4984705;28;20049;-86
2023/02/24 03:22:23;;;;;;;5.88;1.80;;;1.30;99.90;;;;;;4984376;28;20527;-86
2023/02/24 03:24:49;;;;;;;5.63;1.70;;;1.20;99.90;;;;;;4985990;28;20526;-83
2023/02/24 03:27:24;;;;;;;6.97;1.77;;;1.20;99.90;;;;;;4978786;28;20404;-80
2023/02/24 03:29:57;;;;;;;5.20;1.80;;;1.20;99.90;;;;;;4979688;28;20045;-82
2023/02/24 03:32:33;;;;;;;5.90;1.75;;;1.20;99.90;;;;;;4978333;28;20117;-84
2023/02/24 03:35:09;;;;;;;5.68;2.15;;;1.20;99.90;;;;;;4993643;28;20037;-84
2023/02/24 03:37:35;;;;;;;6.32;1.63;;;1.20;99.90;;;;;;4985217;28;20477;-86
2023/02/24 03:40:10;;;;;;;9.98;1.92;;;1.30;99.90;;;;;;4978560;28;20038;-81
2023/02/24 03:42:39;;;;;;;5.00;1.92;;;1.20;99.90;;;;;;4978920;28;20732;-84
2023/02/24 03:45:05;;;;;;;6.88;1.83;;;1.30;99.90;;;;;;4978369;28;20548;-83
2023/02/24 03:47:32;;;;;;;6.90;1.95;;;1.30;99.90;;;;;;4983865;28;20420;-83
2023/02/24 03:49:58;;;;;;;6.90;1.88;;;1.30;99.90;;;;;;4986127;28;20060;-85
2023/02/24 03:52:35;;;;;;;5.55;1.52;;;1.30;99.90;;;;;;4997662;28;20037;-86
2023/02/24 03:55:16;;;;;;;7.10;1.80;;;1.30;99.90;;;;;;4979006;28;20037;-83
2023/02/24 03:58:11;;;;;;;7.05;1.95;;;1.30;99.90;;;;;;4987150;28;20172;-83
2023/02/24 04:01:14;;;;;;;7.50;2.53;;;1.20;99.90;;;;;;4996487;28;20069;-86
2023/02/24 04:03:48;;;;;;;5.90;1.80;;;1.20;99.90;;;;;;4989443;28;20042;-85
2023/02/24 04:06:18;;;;;;;5.15;1.90;;;1.20;99.90;;;;;;4999388;28;20030;-80
2023/02/24 04:09:22;;;;;;;6.88;1.90;;;1.20;99.90;;;;;;4989294;28;20035;-86
2023/02/24 04:12:08;;;;;;;4.10;1.80;;;1.20;99.90;;;;;;4988026;28;20280;-85
2023/02/24 04:15:08;;;;;;;7.07;1.60;;;1.20;99.90;;;;;;4998975;28;20030;-83
2023/02/24 04:17:56;;;;;;;5.25;2.35;;;1.20;99.90;;;;;;4983943;28;20034;-83
2023/02/24 04:20:28;;;;;;;6.22;1.98;;;1.30;99.90;;;;;;4999142;28;20108;-83
2023/02/24 04:22:59;;;;;;;8.82;2.00;;;1.30;99.90;;;;;;4985944;28;20029;-86
2023/02/24 04:25:26;;;;;;;8.20;2.40;;;1.40;99.90;;;;;;4998622;28;20034;-86
2023/02/24 04:28:00;;;;;;;5.80;2.05;;;1.40;99.90;;;;;;4986036;28;20125;-86
2023/02/24 04:30:28;;;;;;;;;;;1.50;99.90;;;;;;4998489;28;20561;-85
2023/02/24 04:32:55;;;;;;;11.27;3.13;;;1.60;99.90;;;;;;4996658;28;19910;-84
2023/02/24 04:35:21;;;;;;;6.30;2.38;;;1.60;99.90;;;;;;4987403;28;20653;-83
2023/02/24 04:37:49;;;;;;;11.32;2.90;;;1.60;99.90;;;;;;4987432;28;20038;-83
2023/02/24 04:40:17;;;;;;;7.10;2.70;;;1.70;99.90;;;;;;4998635;28;20809;-83
2023/02/24 04:42:47;;;;;;;12.00;2.80;;;1.70;99.90;;;;;;4996946;28;20042;-83
2023/02/24 04:45:39;;;;;;;12.20;3.00;;;1.70;99.90;;;;;;4997284;28;20034;-85
2023/02/24 04:48:11;;;;;;;12.70;4.13;;;1.70;99.90;;;;;;4994650;28;20045;-85
2023/02/24 04:50:38;;;;;;;7.18;2.65;;;1.70;99.90;;;;;;4982463;28;20074;-83
2023/02/24 04:53:08;;;;;;;6.47;2.80;;;1.70;99.90;;;;;;4974389;28;20034;-87
2023/02/24 04:55:39;;;;;;;5.70;2.50;;;1.70;99.90;;;;;;4987436;28;20034;-84
2023/02/24 04:58:09;;;;;;;7.65;2.97;;;1.70;99.90;;;;;;4985607;28;20610;-81
2023/02/24 05:00:34;;;;;;;10.10;3.50;;;1.70;99.90;;;;;;4983717;28;20046;-84
2023/02/24 05:03:03;;;;;;;9.52;2.92;;;1.80;99.90;;;;;;4981800;28;20045;-83
2023/02/24 05:05:32;;;;;;;5.90;2.08;;;1.80;99.90;;;;;;4972233;28;20030;-85
2023/02/24 05:08:06;;;;;;;9.32;2.80;;;1.80;99.90;;;;;;4970590;28;20101;-86
2023/02/24 05:10:41;;;;;;;8.40;2.58;;;1.90;99.90;;;;;;4970461;28;20117;-82
2023/02/24 05:13:08;;;;;;;5.60;2.05;;;1.90;99.90;;;;;;4970869;28;20072;-85
2023/02/24 05:15:37;;;;;;;4.60;1.90;;;1.90;99.90;;;;;;4970980;28;20030;-85
2023/02/24 05:18:06;;;;;;;7.57;2.53;;;1.90;99.90;;;;;;4983008;28;20040;-85
2023/02/24 05:23:25;;;;;;;7.65;2.85;;;2.00;99.90;;;;;;4991066;28;20073;-78
2023/02/24 05:25:53;;;;;;;7.40;2.63;;;1.90;99.90;;;;;;4988131;28;20042;-84
2023/02/24 05:28:21;;;;;;;9.90;2.67;;;2.00;99.90;;;;;;4971236;28;20035;-86
2023/02/24 05:30:52;;;;;;;9.15;2.85;;;2.00;99.90;;;;;;4971322;28;20384;-85
2023/02/24 05:33:20;;;;;;;8.27;2.60;;;2.00;99.90;;;;;;4966281;28;20654;-86
2023/02/24 05:35:52;;;;;;;5.90;2.28;;;2.00;99.90;;;;;;4970760;28;20047;-81
2023/02/24 05:38:18;;;;;;;5.18;2.20;;;2.10;99.90;;;;;;4982660;28;20034;-84
2023/02/24 05:40:47;;;;;;;8.57;2.53;;;2.10;99.90;;;;;;4984732;28;20050;-84
2023/02/24 05:43:17;;;;;;;4.75;1.92;;;2.00;99.90;;;;;;4984929;28;20102;-83
2023/02/24 05:45:44;;;;;;;9.07;3.45;;;2.00;99.90;;;;;;4981849;28;20050;-82
2023/02/24 05:48:13;;;;;;;10.40;3.03;;;2.00;99.90;;;;;;4982534;28;20385;-85
2023/02/24 05:50:39;;;;;;;9.65;3.83;;;2.10;99.90;;;;;;4996922;28;20052;-84
2023/02/24 05:53:08;;;;;;;11.75;4.25;;;2.10;99.90;;;;;;4984699;28;20125;-83
2023/02/24 05:55:35;;;;;;;10.00;3.17;;;2.10;99.90;;;;;;4997325;28;20116;-83
2023/02/24 05:58:05;;;;;;;7.93;2.80;;;2.10;99.90;;;;;;4978593;28;20045;-83
2023/02/24 06:00:30;;;;;;;7.60;3.38;;;2.10;99.90;;;;;;4995975;28;20042;-85
2023/02/24 06:03:07;;;;;;;5.28;2.80;;;2.10;99.90;;;;;;4999350;28;20441;-84
2023/02/24 06:05:33;;;;;;;10.00;3.15;;;2.20;99.90;;;;;;4988741;28;20054;-79
2023/02/24 06:08:04;;;;;;;7.85;3.05;;;2.20;99.90;;;;;;4991982;28;20593;-81
2023/02/24 06:10:32;;;;;;;7.88;3.13;;;2.20;99.90;;;;;;4987071;28;20040;-79
2023/02/24 06:12:59;;;;;;;10.57;3.58;;;2.20;99.90;;;;;;4987536;28;20050;-83
2023/02/24 06:15:26;;;;;;;9.45;3.17;;;2.20;99.90;;;;;;4998073;28;20044;-83
2023/02/24 06:17:59;;;;;;;8.90;3.70;;;2.30;99.90;;;;;;4996353;28;20041;-83
2023/02/24 06:20:26;;;;;;;10.05;3.35;;;2.30;99.90;;;;;;4998525;28;20057;-84
2023/02/24 06:22:58;;;;;;;10.27;3.20;;;2.30;99.90;;;;;;5007021;28;20029;-78
2023/02/24 06:25:25;;;;;;;8.93;4.00;;;2.30;99.90;;;;;;5016220;28;20053;-76
2023/02/24 06:27:54;;;;;;;11.23;3.42;;;2.30;99.90;;;;;;5006494;28;20034;-82
2023/02/24 06:30:25;;;;;;;8.60;3.53;;;2.40;99.90;;;;;;4995462;28;20030;-82
2023/02/24 06:32:52;;;;;;;12.68;3.70;;;2.40;99.90;;;;;;5006737;28;20044;-85
2023/02/24 06:35:19;;;;;;;10.90;4.45;;;2.40;99.90;;;;;;5009301;28;20074;-77
2023/02/24 06:37:49;;;;;;;15.23;3.92;;;2.40;99.90;;;;;;5011870;28;20041;-77
2023/02/24 06:40:15;;;;;;;14.38;5.22;;;2.50;99.90;;;;;;5013309;28;20780;-78
2023/02/24 06:42:45;;;;;;;11.77;5.20;;;2.50;99.90;;;;;;5011914;28;20045;-80
2023/02/24 06:45:11;;;;;;;12.60;5.13;;;2.50;99.90;;;;;;5005768;28;20040;-84
2023/02/24 06:47:37;;;;;;;13.80;4.72;;;2.60;99.90;;;;;;5002105;28;20034;-86
2023/02/24 06:50:06;;;;;;;16.02;6.22;;;2.60;99.90;;;;;;5001955;28;20082;-82
2023/02/24 06:52:32;;;;;;;11.00;5.13;;;2.60;99.90;;;;;;4998174;28;20126;-85
2023/02/24 06:54:58;;;;;;;13.02;4.78;;;2.60;99.90;;;;;;5002987;28;20034;-81
2023/02/24 06:57:24;;;;;;;17.52;5.35;;;2.60;99.90;;;;;;5005152;28;20041;-86
2023/02/24 06:59:49;;;;;;;11.40;4.75;;;2.70;99.90;;;;;;4990366;28;20042;-78
2023/02/24 07:02:16;;;;;;;12.30;5.00;;;2.70;99.90;;;;;;4991253;28;20038;-85
2023/02/24 07:04:46;;;;;;;7.18;4.20;;;2.70;99.90;;;;;;5006060;28;20392;-82
2023/02/24 07:07:13;;;;;;;9.18;4.25;;;2.70;99.90;;;;;;5005158;28;20057;-81
2023/02/24 07:09:40;;;;;;;9.77;4.25;;;2.70;99.90;;;;;;4993211;28;20040;-85
2023/02/24 07:12:06;;;;;;;12.13;4.15;;;2.80;99.90;;;;;;5003171;28;20037;-79
2023/02/24 07:14:34;;;;;;;8.55;3.25;;;2.80;99.90;;;;;;4989242;28;20041;-85
2023/02/24 07:17:00;;;;;;;10.60;3.78;;;2.80;99.90;;;;;;4989859;28;20088;-81
2023/02/24 07:19:28;;;;;;;12.85;4.05;;;2.80;99.90;;;;;;5017368;28;20050;-83
2023/02/24 07:21:58;;;;;;;9.73;3.33;;;2.90;99.90;;;;;;4983028;28;20034;-86
2023/02/24 07:24:31;;;;;;;6.75;2.70;;;2.90;99.90;;;;;;5003768;28;20781;-76
2023/02/24 07:26:59;;;;;;;10.77;3.45;;;2.90;99.90;;;;;;5002164;28;20042;-84
2023/02/24 07:29:27;;;;;;;11.25;2.97;;;3.00;99.90;;;;;;5017840;28;20495;-84
2023/02/24 07:31:53;;;;;;;8.50;2.80;;;3.00;99.90;;;;;;4999578;28;20045;-85
2023/02/24 07:34:23;;;;;;;7.10;2.65;;;3.10;99.90;;;;;;5000901;28;20041;-81
2023/02/24 07:36:51;;;;;;;8.35;2.28;;;3.10;99.90;;;;;;5002916;28;20044;-79
2023/02/24 07:39:18;;;;;;;11.32;2.83;;;3.10;99.90;;;;;;5003623;28;20049;-84
2023/02/24 07:41:48;;;;;;;6.15;2.33;;;3.20;99.90;;;;;;5002957;28;20057;-86
2023/02/24 07:44:15;;;;;;;8.95;2.50;;;3.20;99.90;;;;;;5001796;28;20062;-86
2023/02/24 07:46:41;;;;;;;6.72;2.20;;;3.30;99.90;;;;;;5001715;28;20547;-83
2023/02/24 07:49:12;;;;;;;9.15;2.30;;;3.30;99.90;;;;;;4985189;28;20043;-87
2023/02/24 07:51:37;;;;;;;5.88;1.60;;;3.30;99.90;;;;;;4987496;28;20114;-80
2023/02/24 07:54:04;;;;;;;9.18;2.10;;;3.40;99.90;;;;;;4987167;28;20500;-83
2023/02/24 07:56:31;;;;;;;7.15;2.08;;;3.40;99.90;;;;;;4981267;28;20097;-86
2023/02/24 07:59:06;;;;;;;8.90;2.00;;;3.40;99.90;;;;;;4980192;28;20046;-82
2023/02/24 08:01:48;;;;;;;9.88;2.50;;;3.50;99.90;;;;;;4985885;28;20085;-83
2023/02/24 08:04:15;;;;;;;8.32;2.20;;;3.50;99.90;;;;;;4987217;28;20609;-82
2023/02/24 08:06:49;;;;;;;13.90;2.70;;;3.50;99.90;;;;;;4979806;28;20131;-78
2023/02/24 08:09:19;;;;;;;7.88;1.95;;;3.40;99.90;;;;;;4985633;28;20401;-84
2023/02/24 08:11:51;;;;;;;9.60;1.63;;;3.40;99.90;;;;;;4980877;28;20038;-77
2023/02/24 08:14:18;;;;;;;8.90;2.17;;;3.40;99.90;;;;;;4991922;28;20042;-76
2023/02/24 08:16:47;;;;;;;9.30;1.95;;;3.40;99.90;;;;;;4991308;28;20030;-85
2023/02/24 08:25:05;;;;;;;9.60;1.83;;;3.40;99.90;;;;;;5046593;28;20107;-81
2023/02/24 08:27:37;;;;;;;14.40;2.92;;;3.40;99.90;;;;;;5012875;28;20068;-85
2023/02/24 08:30:28;;;;;;;6.38;1.67;;;3.40;99.90;;;;;;5044949;28;20056;-77
2023/02/24 08:32:58;;;;;;;8.48;1.90;;;3.40;99.90;;;;;;5027059;28;20055;-76
2023/02/24 08:35:36;;;;;;;9.50;2.17;;;3.40;99.90;;;;;;5025743;28;20092;-82
2023/02/24 08:38:07;;;;;;;12.52;2.63;;;3.40;99.90;;;;;;5023384;28;20029;-81
2023/02/24 08:40:36;;;;;;;10.30;2.50;;;3.50;99.90;;;;;;5024953;28;20037;-80
2023/02/24 08:43:15;;;;;;;12.32;2.20;;;3.50;99.90;;;;;;5032346;28;20033;-84
2023/02/24 08:45:59;;;;;;;8.95;2.20;;;3.50;99.90;;;;;;5039065;28;20175;-82
2023/02/24 08:48:36;;;;;;;8.88;2.00;;;3.50;99.90;;;;;;5008428;28;20045;-81
2023/02/24 08:51:03;;;;;;;11.32;2.08;;;3.50;99.90;;;;;;5020248;28;21922;-84
2023/02/24 08:53:30;;;;;;;10.73;2.10;;;3.50;99.90;;;;;;5023616;28;20032;-76
2023/02/24 08:55:57;;;;;;;7.63;2.00;;;3.60;99.90;;;;;;5023367;28;20387;-79
2023/02/24 08:58:26;;;;;;;10.90;2.15;;;3.60;99.90;;;;;;5023085;28;20041;-84
2023/02/24 09:00:55;;;;;;;11.20;2.10;;;3.70;99.90;;;;;;5024372;28;20120;-86
2023/02/24 09:03:27;;;;;;;8.05;2.28;;;3.70;99.90;;;;;;5024655;28;20057;-78
2023/02/24 09:06:15;;;;;;;10.35;2.15;;;3.70;99.90;;;;;;5025314;28;20364;-84
2023/02/24 09:08:42;;;;;;;10.63;2.15;;;3.70;99.90;;;;;;5019691;28;20037;-85
2023/02/24 09:11:12;;;;;;;9.27;2.08;;;3.60;99.90;;;;;;5036903;28;20538;-81
2023/02/24 09:13:56;;;;;;;11.70;2.33;;;3.70;99.90;;;;;;5021576;28;20051;-83
2023/02/24 09:16:23;;;;;;;12.23;2.53;;;3.70;99.90;;;;;;5020444;28;20051;-82
2023/02/24 09:19:39;;;;;;;16.20;3.25;;;3.70;99.90;;;;;;5036496;28;20033;-84
2023/02/24 09:24:25;;;;;;;9.80;2.45;;;3.70;99.90;;;;;;5026317;28;20041;-84
2023/02/24 09:27:03;;;;;;;13.55;2.03;;;3.70;99.90;;;;;;5023168;28;20475;-83
2023/02/24 09:29:34;;;;;;;13.73;2.50;;;3.70;99.90;;;;;;5039984;28;20048;-86
2023/02/24 09:32:05;;;;;;;12.18;2.38;;;3.70;99.90;;;;;;5025254;28;20053;-84
2023/02/24 09:34:35;;;;;;;11.95;2.58;;;3.70;99.90;;;;;;5022899;28;20055;-79
2023/02/24 09:37:02;;;;;;;8.55;2.50;;;3.80;99.90;;;;;;5027341;28;20106;-81
2023/02/24 09:40:37;;;;;;;14.40;3.00;;;3.80;99.90;;;;;;5024310;28;20490;-83
2023/02/24 09:45:10;;;;;;;10.90;2.95;;;3.80;99.90;;;;;;5038813;28;20487;-85
2023/02/24 09:47:55;;;;;;;15.23;3.37;;;3.90;99.90;;;;;;5034146;28;20036;-81
2023/02/24 09:50:29;;;;;;;8.45;2.38;;;3.90;99.90;;;;;;5018915;28;20052;-80
2023/02/24 09:53:12;;;;;;;9.63;2.53;;;4.00;99.90;;;;;;5017273;28;20045;-86
2023/02/24 09:56:04;;;;;;;9.75;2.80;;;4.00;99.90;;;;;;5016591;28;20069;-82
2023/02/24 09:58:58;;;;;;;10.80;2.53;;;4.10;99.90;;;;;;5019148;28;20394;-83
2023/02/24 10:01:45;;;;;;;12.45;2.90;;;4.20;99.90;;;;;;5040157;28;20070;-85
2023/02/24 10:04:26;;;;;;;13.30;4.13;;;4.30;99.90;;;;;;5040332;28;20116;-85
2023/02/24 10:07:16;;;;;;;11.68;2.97;;;4.40;99.90;;;;;;5041659;28;20060;-79
2023/02/24 10:10:37;;;;;;;12.32;3.10;;;4.50;99.90;;;;;;5039744;28;20433;-85
2023/02/24 10:13:13;;;;;;;10.45;2.90;;;4.50;99.90;;;;;;5034446;28;20430;-83
2023/02/24 10:18:36;;;;;;;9.05;2.58;;;4.50;99.90;;;;;;5043557;28;20562;-81
2023/02/24 10:21:29;;;;;;;10.52;3.47;;;4.60;99.90;;;;;;5026168;28;20057;-85
2023/02/24 10:24:18;;;;;;;13.07;2.95;;;4.60;99.90;;;;;;5020894;28;20045;-81
2023/02/24 10:26:57;;;;;;;14.60;4.05;;;4.60;99.90;;;;;;5040667;28;20048;-84
2023/02/24 10:29:31;;;;;;;14.98;4.38;;;4.60;99.90;;;;;;5039411;28;20129;-83
2023/02/24 10:32:15;;;;;;;11.15;3.20;;;4.60;99.90;;;;;;5037225;28;20130;-78
2023/02/24 10:34:43;;;;;;;10.80;3.75;;;4.60;99.90;;;;;;5033035;28;20040;-80
2023/02/24 10:37:13;;;;;;;10.23;3.92;;;4.60;99.90;;;;;;5020535;28;20037;-81
2023/02/24 10:39:42;;;;;;;11.90;3.80;;;4.60;99.90;;;;;;5024585;28;20072;-81
2023/02/24 10:42:14;;;;;;;13.88;3.75;;;4.60;99.90;;;;;;5022329;28;20036;-80
2023/02/24 10:44:50;;;;;;;11.77;3.78;;;4.60;99.90;;;;;;5042747;28;20036;-81
2023/02/24 10:47:33;;;;;;;13.77;4.07;;;4.60;99.90;;;;;;5039603;28;20045;-84
2023/02/24 10:50:01;;;;;;;17.42;4.80;;;4.60;99.90;;;;;;5038779;28;20030;-81
2023/02/24 10:58:36;;;;;;;12.77;4.38;;;4.60;99.90;;;;;;5041968;28;20418;-82
2023/02/24 11:01:19;;;;;;;13.60;5.43;;;4.70;99.90;;;;;;5033268;28;20037;-78
2023/02/24 11:04:00;;;;;;;13.70;4.80;;;4.70;99.90;;;;;;5030523;28;20044;-84
2023/02/24 11:06:51;;;;;;;13.38;5.68;;;4.70;99.90;;;;;;5029448;28;20064;-83
2023/02/24 11:17:57;;;;;;;16.55;6.35;;;4.80;99.90;;;;;;5039343;28;20060;-85
2023/02/24 11:20:22;;;;;;;17.67;6.32;;;4.80;99.90;;;;;;5026864;28;20056;-79
2023/02/24 11:22:51;;;;;;;12.80;6.03;;;4.80;99.90;;;;;;5040960;28;20040;-83
2023/02/24 11:25:23;;;;;;;16.88;6.45;;;4.90;99.90;;;;;;5041218;28;20049;-85
2023/02/24 11:27:50;;;;;;;14.85;7.50;;;4.90;99.90;;;;;;5037955;28;20034;-79
2023/02/24 11:30:34;;;;;;;13.77;6.78;;;4.90;99.90;;;;;;5038138;28;20041;-82
2023/02/24 11:33:29;;;;;;;15.68;7.18;;;4.90;99.90;;;;;;5023101;28;20037;-83
2023/02/24 11:36:08;;;;;;;14.48;6.50;;;5.00;99.90;;;;;;4992995;28;20056;-82
2023/02/24 11:39:05;;;;;;;15.48;7.47;;;5.00;99.90;;;;;;5024860;28;20155;-81
2023/02/24 11:41:39;;;;;;;14.80;7.00;;;5.10;99.90;;;;;;5022256;28;20155;-81
2023/02/24 11:44:18;;;;;;;12.52;6.00;;;5.10;99.90;;;;;;5021041;28;20033;-85
2023/02/24 11:46:51;;;;;;;15.63;6.95;;;5.10;99.90;;;;;;5038559;28;20040;-85
2023/02/24 11:49:38;;;;;;;17.77;6.60;;;5.20;99.90;;;;;;5026027;28;20040;-80
2023/02/24 11:52:09;;;;;;;17.45;7.97;;;5.20;99.90;;;;;;5019611;28;20183;-82
2023/02/24 11:54:40;;;;;;;16.98;7.30;;;5.20;99.90;;;;;;5028643;28;20064;-83
2023/02/24 11:57:15;;;;;;;17.60;7.78;;;5.20;99.90;;;;;;5026082;28;20034;-83
2023/02/24 11:59:50;;;;;;;17.95;7.95;;;5.20;99.90;;;;;;5024624;28;20478;-83
2023/02/24 12:02:22;;;;;;;14.93;7.50;;;5.30;99.90;;;;;;5024045;28;20131;-80
2023/02/24 12:05:01;;;;;;;19.73;8.88;;;5.30;99.90;;;;;;5026945;28;20123;-84
2023/02/24 12:07:35;;;;;;;15.43;8.68;;;5.40;99.90;;;;;;5025204;28;20160;-77
2023/02/24 12:10:24;;;;;;;20.15;10.40;;;5.40;99.90;;;;;;5026618;28;20124;-81
2023/02/24 12:13:01;;;;;;;17.95;9.88;;;5.50;99.90;;;;;;5041211;28;20033;-78
2023/02/24 12:15:32;;;;;;;17.88;9.35;;;5.50;99.90;;;;;;5039283;28;20134;-85
2023/02/24 12:18:23;;;;;;;15.05;9.80;;;5.60;99.90;;;;;;5035786;28;20045;-84
2023/02/24 12:20:51;;;;;;;14.77;8.95;;;5.60;99.90;;;;;;5020290;28;20057;-81
2023/02/24 12:23:33;;;;;;;21.60;10.93;;;5.60;99.90;;;;;;5018623;28;20061;-83
2023/02/24 12:26:08;;;;;;;16.17;9.48;;;5.60;99.90;;;;;;5032949;28;20055;-80
2023/02/24 12:28:57;;;;;;;17.13;9.90;;;5.60;99.90;;;;;;5013650;28;20063;-77
2023/02/24 12:31:53;;;;;;;18.20;10.48;;;5.70;99.90;;;;;;5035193;28;20033;-78
2023/02/24 12:34:57;;;;;;;17.70;9.68;;;5.70;99.90;;;;;;5035852;28;20048;-81
2023/02/24 12:38:05;;;;;;;17.88;9.38;;;5.70;99.90;;;;;;4990763;28;20368;-84
2023/02/24 12:40:45;;;;;;;15.10;9.15;;;5.70;99.90;;;;;;5036301;28;20052;-81
2023/02/24 12:43:44;;;;;;;14.55;9.48;;;5.70;99.90;;;;;;5017657;28;20041;-82
2023/02/24 12:46:34;;;;;;;16.38;10.05;;;5.80;99.90;;;;;;5019109;28;20380;-81
2023/02/24 12:49:39;;;;;;;15.77;8.43;;;5.80;99.90;;;;;;5018562;28;20377;-82
2023/02/24 12:52:23;;;;;;;15.02;8.60;;;5.70;99.90;;;;;;5037091;28;20029;-82
2023/02/24 12:55:16;;;;;;;16.38;9.88;;;5.70;99.90;;;;;;5038147;28;20078;-79
2023/02/24 12:58:05;;;;;;;17.53;10.27;;;6.20;99.90;;;;;;5020796;28;20036;-84
2023/02/24 13:00:55;;;;;;;15.77;9.35;;;6.90;99.90;;;;;;5039227;28;21047;-82
2023/02/24 13:03:53;;;;;;;17.90;11.70;;;7.10;99.90;;;;;;5022376;28;20045;-82
2023/02/24 13:06:29;;;;;;;16.50;10.57;;;7.00;99.90;;;;;;5024706;28;20037;-85
2023/02/24 13:09:18;;;;;;;14.85;10.60;;;7.00;99.90;;;;;;5038136;28;20423;-88
2023/02/24 13:12:10;;;;;;;18.20;10.40;;;7.00;99.90;;;;;;5036773;28;20041;-81
2023/02/24 13:14:42;;;;;;;22.42;12.35;;;7.00;99.90;;;;;;5024104;28;20038;-82
2023/02/24 13:17:08;;;;;;;20.27;12.40;;;7.40;99.90;;;;;;5019704;28;20147;-86
2023/02/24 13:19:33;;;;;;;17.23;10.48;;;8.40;99.90;;;;;;5022553;28;20088;-86
2023/02/24 13:22:18;;;;;;;13.40;8.35;;;8.70;99.90;;;;;;5036752;28;20048;-87
2023/02/24 13:25:05;;;;;;;14.75;8.73;;;8.70;99.90;;;;;;5042561;28;20092;-85
2023/02/24 13:27:37;;;;;;;18.10;8.73;;;9.10;99.90;;;;;;5041077;28;20030;-79
2023/02/24 13:30:17;;;;;;;14.93;8.67;;;9.50;99.90;;;;;;5025135;28;20040;-83
2023/02/24 13:32:58;;;;;;;13.20;7.88;;;9.40;99.90;;;;;;5023101;28;20290;-87
2023/02/24 13:35:23;;;;;;;16.52;8.68;;;9.00;99.90;;;;;;5038656;28;20044;-82
2023/02/24 13:37:50;;;;;;;15.40;7.85;;;8.80;99.90;;;;;;5038037;28;20041;-82
2023/02/24 13:40:21;;;;;;;13.15;8.27;;;8.60;99.90;;;;;;5028039;28;20049;-84
2023/02/24 13:42:56;;;;;;;18.23;9.35;;;8.50;99.90;;;;;;5038137;28;20084;-82
2023/02/24 13:45:23;;;;;;;14.85;9.07;;;8.40;99.90;;;;;;5039551;28;20506;-80
2023/02/24 13:47:57;;;;;;;20.05;10.20;;;8.20;99.90;;;;;;5038135;28;20124;-79
2023/02/24 13:50:32;;;;;;;15.18;8.38;;;8.00;99.90;;;;;;5040548;28;20297;-78
2023/02/24 13:53:35;;;;;;;23.55;9.23;;;7.90;99.90;;;;;;5040505;28;20029;-80
2023/02/24 13:56:25;;;;;;;17.93;8.03;;;7.60;99.90;;;;;;5040210;28;20081;-83
2023/02/24 13:58:57;;;;;;;16.35;7.97;;;7.60;99.90;;;;;;5020900;28;20041;-82
2023/02/24 14:01:26;;;;;;;20.08;9.65;;;7.50;99.90;;;;;;5020345;28;20037;-82
2023/02/24 14:04:21;;;;;;;18.85;7.35;;;7.50;99.90;;;;;;5021624;28;20041;-82